Home > Products > Valid Products > MTR

000
SAUS44 KMEG 310954
MTRTUP
METAR KTUP 310953Z AUTO 00000KT 10SM CLR 09/07 A2997 RMK AO2 SLP146
T00890072





000
SAUS44 KMEG 310854
MTRTUP
METAR KTUP 310853Z AUTO 00000KT 10SM CLR 11/07 A2997 RMK AO2 SLP147
T01060072 58013





000
SAUS44 KMEG 310754
MTRTUP
METAR KTUP 310753Z AUTO 08005KT 10SM OVC065 12/08 A2999 RMK AO2
SLP154 T01170078





000
SAUS44 KMEG 310654
MTRTUP
METAR KTUP 310653Z AUTO 00000KT 10SM FEW070 SCT110 10/08 A2999 RMK
AO2 SLP154 T01000083





000
SAUS44 KMEG 310554
MTRTUP
METAR KTUP 310553Z AUTO 20003KT 10SM SCT090 BKN110 10/08 A3001 RMK
AO2 SLP160 T01000078 10133 20100 402000056 58009





000
SAUS44 KMEG 310454
MTRTUP
METAR KTUP 310453Z AUTO 00000KT 10SM FEW085 OVC110 11/08 A3003 RMK
AO2 SLP166 T01060083





000
SAUS44 KMEG 310354
MTRTUP
METAR KTUP 310353Z AUTO 27003KT 10SM BKN100 OVC110 12/09 A3003 RMK
AO2 SLP167 T01170089





000
SAUS44 KMEG 310354
MTRTUP
METAR KTUP 310353Z AUTO 27003KT 10SM BKN100 OVC110 12/09 A3003 RMK
AO2 SLP167 T01170089





000
SAUS44 KMEG 310254
MTRTUP
METAR KTUP 310253Z 28003KT 10SM BKN110 12/09 A3004 RMK AO2 SLP170
T01220089 58004





000
SAUS44 KMEG 310154
MTRTUP
METAR KTUP 310153Z 00000KT 10SM BKN110 12/09 A3004 RMK AO2 SLP172
T01170089





000
SAUS44 KMEG 310054
MTRTUP
METAR KTUP 310053Z 27003KT 10SM CLR 12/08 A3005 RMK AO2 SLP175
T01170078





000
SAUS44 KMEG 302354
MTRTUP
METAR KTUP 302353Z 00000KT 10SM CLR 13/07 A3005 RMK AO2 SLP174
T01280072 10200 20128 55002





000
SAUS44 KMEG 302254
MTRTUP
METAR KTUP 302253Z AUTO 34003KT 10SM CLR 17/04 A3004 RMK AO2 SLP173
T01720044





000
SAUS44 KMEG 302154
MTRTUP
METAR KTUP 302153Z AUTO 02005KT 10SM CLR 19/03 A3004 RMK AO2 SLP171
T01940028





000
SAUS44 KMEG 302154
MTRTUP
METAR KTUP 302153Z AUTO 02005KT 10SM CLR 19/03 A3004 RMK AO2 SLP171
T01940028





000
SAUS44 KMEG 302054
MTRTUP
METAR KTUP 302053Z AUTO 01005KT 10SM CLR 19/03 A3005 RMK AO2 SLP175
T01940028 56021





000
SAUS44 KMEG 301954
MTRTUP
METAR KTUP 301953Z AUTO 03004KT 10SM CLR 19/03 A3007 RMK AO2 SLP180
T01940028





000
SAUS44 KMEG 301854
MTRTUP
METAR KTUP 301853Z VRB03KT 10SM CLR 19/03 A3009 RMK AO2 SLP186
T01890028





000
SAUS44 KMEG 301754
MTRTUP
METAR KTUP 301753Z 02008KT 10SM CLR 18/02 A3011 RMK AO2 SLP196
T01830022 10183 20056 58020





000
SAUS44 KMEG 301654
MTRTUP
METAR KTUP 301653Z 10SM CLR 17/02 A3015 RMK AO2 SLP206 T01720022





000
SAUS44 KMEG 301654
MTRTUP
METAR KTUP 301653Z 10SM CLR 17/02 A3015 RMK AO2 SLP206 T01720022





000
SAUS44 KMEG 301554
MTRTUP
METAR KTUP 301553Z VRB03KT 10SM CLR 15/07 A3016 RMK AO2 SLP212
T01500067





000
SAUS44 KMEG 301454
MTRTUP
METAR KTUP 301453Z 06004KT 10SM CLR 12/07 A3018 RMK AO2 SLP218
T01220072 51011





000
SAUS44 KMEG 301354
MTRTUP
METAR KTUP 301353Z 04003KT 10SM CLR 09/07 A3017 RMK AO2 SLP215
T00940067





000
SAUS44 KMEG 301254
MTRTUP
METAR KTUP 301253Z 04003KT 10SM CLR 07/04 A3016 RMK AO2 SLP212
T00670044





000
SAUS44 KMEG 301154
MTRTUP
METAR KTUP 301153Z 00000KT 10SM CLR 06/04 A3014 RMK AO2 SLP207
T00610044 10089 20056 53007





000
SAUS44 KMEG 301054
MTRTUP
METAR KTUP 301053Z 00000KT 10SM CLR 06/04 A3014 RMK AO2 SLP204
T00610044





000
SAUS44 KMEG 301054
MTRTUP
METAR KTUP 301053Z 00000KT 10SM CLR 06/04 A3014 RMK AO2 SLP204
T00610044





000
SAUS44 KMEG 300954
MTRTUP
METAR KTUP 300953Z AUTO 00000KT 10SM CLR 06/05 A3013 RMK AO2 SLP200
T00610050





000
SAUS44 KMEG 300854
MTRTUP
METAR KTUP 300853Z AUTO 02003KT 10SM CLR 07/05 A3012 RMK AO2 SLP199
T00670050 55002





000
SAUS44 KMEG 300754
MTRTUP
METAR KTUP 300753Z AUTO 00000KT 10SM CLR 07/06 A3012 RMK AO2 SLP196
T00720056





000
SAUS44 KMEG 300654
MTRTUP
METAR KTUP 300653Z AUTO 00000KT 10SM CLR 08/06 A3012 RMK AO2 SLP199
T00780061





000
SAUS44 KMEG 300554
MTRTUP
METAR KTUP 300553Z AUTO 00000KT 10SM CLR 08/07 A3013 RMK AO2 SLP201
T00830067 10150 20083 402060083 58004





000
SAUS44 KMEG 300454
MTRTUP
METAR KTUP 300453Z AUTO 00000KT 10SM CLR 09/07 A3014 RMK AO2 SLP203
T00940067





000
SAUS44 KMEG 300454
MTRTUP
METAR KTUP 300453Z AUTO 00000KT 10SM CLR 09/07 A3014 RMK AO2 SLP203
T00940067





000
SAUS44 KMEG 300354
MTRTUP
METAR KTUP 300353Z AUTO 00000KT 10SM CLR 09/06 A3014 RMK AO2 SLP205
T00940061





000
SAUS44 KMEG 300254
MTRTUP
METAR KTUP 300253Z 03004KT 10SM CLR 10/07 A3014 RMK AO2 SLP205
T01000067 53007





000
SAUS44 KMEG 300154
MTRTUP
METAR KTUP 300153Z 03003KT 10SM CLR 11/07 A3014 RMK AO2 SLP204
T01110067





000
SAUS44 KMEG 300054
MTRTUP
METAR KTUP 300053Z 00000KT 10SM CLR 13/06 A3013 RMK AO2 SLP201
T01280061





000
SAUS44 KMEG 292354
MTRTUP
METAR KTUP 292353Z 01005KT 10SM CLR 15/06 A3012 RMK AO2 SLP198
T01500056 10206 20150 53005





000
SAUS44 KMEG 292254
MTRTUP
METAR KTUP 292253Z AUTO 36004KT 10SM CLR 18/06 A3011 RMK AO2 SLP195
T01780056





000
SAUS44 KMEG 292254
MTRTUP
METAR KTUP 292253Z AUTO 36004KT 10SM CLR 18/06 A3011 RMK AO2 SLP195
T01780056





000
SAUS44 KMEG 292154
MTRTUP
METAR KTUP 292153Z AUTO 01010KT 10SM CLR 20/03 A3011 RMK AO2 SLP192
T02000033





000
SAUS44 KMEG 292054
MTRTUP
METAR KTUP 292053Z AUTO 04010KT 10SM CLR 21/04 A3011 RMK AO2 SLP192
T02060044 56015





000
SAUS44 KMEG 291954
MTRTUP
METAR KTUP 291953Z AUTO 04011KT 360V070 10SM CLR 21/04 A3012 RMK AO2
SLP195 T02060044





000
SAUS44 KMEG 291854
MTRTUP
METAR KTUP 291853Z 04009KT 10SM CLR 20/04 A3014 RMK AO2 SLP202
T02000044





000
SAUS44 KMEG 291754
MTRTUP
METAR KTUP 291753Z 03014KT 10SM CLR 19/06 A3015 RMK AO2 SLP208
T01940061 10194 20117 58005





000
SAUS44 KMEG 291654
MTRTUP
METAR KTUP 291653Z 06010KT 10SM CLR 18/07 A3017 RMK AO2 SLP215
T01830072





000
SAUS44 KMEG 291554
MTRTUP
METAR KTUP 291553Z 05012KT 10SM CLR 17/09 A3017 RMK AO2 SLP215
T01670094





000
SAUS44 KMEG 291454
MTRTUP
METAR KTUP 291453Z 04010KT 10SM CLR 15/11 A3017 RMK AO2 SLP213
T01500106 51019





000
SAUS44 KMEG 291354
MTRTUP
METAR KTUP 291353Z 04011KT 10SM FEW008 13/10 A3016 RMK AO2 SLP210
T01280100





000
SAUS44 KMEG 291342
MTRTUP
SPECI KTUP 291341Z 03010KT 10SM FEW008 12/10 A3015 RMK AO2 T01220100





000
SAUS44 KMEG 291254
MTRTUP
METAR KTUP 291253Z 03009KT 10SM SCT090 12/10 A3014 RMK AO2 SLP203
T01170100





000
SAUS44 KMEG 291154
MTRTUP
METAR KTUP 291153Z 05007KT 10SM BKN046 BKN100 12/10 A3011 RMK AO2
SLP194 60057 70074 T01220100 10183 20122 53006





000
SAUS44 KMEG 291054
MTRTUP
METAR KTUP 291053Z 04011KT 10SM FEW012 BKN043 OVC060 12/11 A3011 RMK
AO2 SLP193 T01220106





000
SAUS44 KMEG 291020
MTRTUP
SPECI KTUP 291018Z AUTO 04011KT 10SM FEW011 SCT021 OVC050 12/11
A3010 RMK AO2 T01220106





000
SAUS44 KMEG 291011
MTRTUP
SPECI KTUP 291010Z AUTO 04011KT 10SM FEW011 BKN021 OVC050 12/11
A3009 RMK AO2 T01220106





000
SAUS44 KMEG 290954
MTRTUP
METAR KTUP 290953Z AUTO 04011KT 10SM BKN011 OVC020 13/11 A3010 RMK
AO2 RAB11E20 SLP189 P0000 T01280106





000
SAUS44 KMEG 290949
MTRTUP
SPECI KTUP 290948Z AUTO 04013KT 10SM BKN011 OVC020 13/11 A3010 RMK
AO2 RAB11E20 P0000





000
SAUS44 KMEG 290854
MTRTUP
METAR KTUP 290853Z AUTO 04010KT 10SM OVC006 13/12 A3008 RMK AO2
RAB0759E24 SLP182 P0000 60057 T01330117 53011





000
SAUS44 KMEG 290754
MTRTUP
METAR KTUP 290753Z AUTO 02010KT 10SM BKN007 BKN017 OVC045 15/13
A3007 RMK AO2 LTG DSNT S RAB17E39 SLP179 P0000 T01500133





000
SAUS44 KMEG 290716
MTRTUP
SPECI KTUP 290715Z AUTO 36010KT 10SM BKN006 OVC011 17/16 A3006 RMK
AO2 CIG 004V008 T01720161





000
SAUS44 KMEG 290659
MTRTUP
SPECI KTUP 290657Z AUTO 00000KT 10SM FEW006 BKN011 OVC060 18/18
A3004 RMK AO2 LTG DSNT NE AND E T01830178





000
SAUS44 KMEG 290654
MTRTUP
METAR KTUP 290653Z AUTO 00000KT 10SM SCT011 BKN046 OVC060 18/18
A3004 RMK AO2 LTG DSNT NE AND E RAE35 TSB01E16 SLP170 P0057
T01830178





000
SAUS44 KMEG 290650
MTRTUP
SPECI KTUP 290649Z AUTO 00000KT 10SM FEW013 BKN046 OVC060 18/18
A3004 RMK AO2 LTG DSNT NE AND E RAE35 TSB01E16 P0057





000
SAUS44 KMEG 290629
MTRTUP
SPECI KTUP 290628Z AUTO 03007KT 5SM VCTS -RA BR SCT012 SCT028 OVC044
18/17 A3003 RMK AO2 LTG DSNT NE-S TSB01E16 P0057 T01830172





000
SAUS44 KMEG 290617
MTRTUP
SPECI KTUP 290616Z AUTO 02007G16KT 2SM +RA BR SCT007 BKN015 OVC038
18/17 A3004 RMK AO2 VIS 1 1/2V4 LTG DSNT N AND NE TSB01E16 P0052
T01830172





000
SAUS44 KMEG 290607
MTRTUP
SPECI KTUP 290606Z AUTO 02017G22KT 1SM +TSRA BR BKN009 BKN038 OVC070
18/17 A3002 RMK AO2 LTG DSNT NW-NE TSB01 P0023 T01780167





000
SAUS44 KMEG 290604
MTRTUP
SPECI KTUP 290603Z AUTO 36014G21KT 1 1/2SM +TSRA BR BKN011 BKN039
OVC070 18/17 A3005 RMK AO2 LTG DSNT NW-NE TSB01 P0008 T01780167





000
SAUS44 KMEG 290554
MTRTUP
METAR KTUP 290553Z AUTO 36009KT 7SM VCTS -RA FEW005 BKN040 OVC085
18/17 A3003 RMK AO2 LTG DSNT W-NE RAB0457E06B44 SLP165 P0002 60017
T01830167 10222 20178 402610150 56009





000
SAUS44 KMEG 290454
MTRTUP
METAR KTUP 290453Z AUTO 02003KT 10SM SCT036 OVC080 18/17 A3003 RMK
AO2 LTG DSNT N AND NW RAE00B25E35 SLP165 P0000 T01780167





000
SAUS44 KMEG 290454
MTRTUP
METAR KTUP 290453Z AUTO 02003KT 10SM SCT036 OVC080 18/17 A3003 RMK
AO2 LTG DSNT N AND NW RAE00B25E35 SLP165 P0000 T01780167





000
SAUS44 KMEG 290354
MTRTUP
METAR KTUP 290353Z AUTO 00000KT 8SM -RA FEW055 BKN090 OVC110 19/18
A3005 RMK AO2 LTG DSNT NW SLP173 P0015 T01940178





000
SAUS44 KMEG 290254
MTRTUP
METAR KTUP 290253Z 00000KT 7SM -RA FEW090 OVC100 20/17 A3006 RMK AO2
LTG DSNT W RAB13E17B53 SLP174 P0000 60000 T02000172 53011





000
SAUS44 KMEG 290154
MTRTUP
METAR KTUP 290153Z 00000KT 10SM BKN110 19/17 A3004 RMK AO2 SLP169
T01940172





000
SAUS44 KMEG 290054
MTRTUP
METAR KTUP 290053Z 00000KT 10SM CLR 21/17 A3003 RMK AO2 SLP165
T02060167





000
SAUS44 KMEG 282354
MTRTUP
METAR KTUP 282353Z 29004KT 10SM BKN037 BKN046 OVC055 22/18 A3002 RMK
AO2 SLP164 T02220178 10261 20222 55007





000
SAUS44 KMEG 282254
MTRTUP
METAR KTUP 282253Z 00000KT 10SM BKN035 23/17 A3002 RMK AO2 SLP162
T02330172





000
SAUS44 KMEG 282154
MTRTUP
METAR KTUP 282153Z 00000KT 10SM SCT090 25/18 A3004 RMK AO2 LTG DSNT
N SLP168 T02500178





000
SAUS44 KMEG 282054
MTRTUP
METAR KTUP 282053Z 26005KT 10SM FEW035 26/17 A3004 RMK AO2 SLP170
T02560167 55007





000
SAUS44 KMEG 281954
MTRTUP
METAR KTUP 281953Z 27009KT 10SM FEW030 SCT100 26/17 A3003 RMK AO2
SLP166 T02610172





000
SAUS44 KMEG 281854
MTRTUP
METAR KTUP 281853Z 30004KT 10SM BKN030 BKN043 25/18 A3005 RMK AO2
SLP171 T02500178





000
SAUS44 KMEG 281827
MTRTUP
SPECI KTUP 281825Z AUTO 25006KT 10SM SCT025 BKN034 OVC050 25/18
A3006 RMK AO2 T02500178





000
SAUS44 KMEG 281754
MTRTUP
METAR KTUP 281753Z AUTO 27006KT 10SM BKN025 BKN065 26/18 A3007 RMK
AO2 SLP178 T02560183 10256 20156 58011





000
SAUS44 KMEG 281708
MTRTUP
SPECI KTUP 281707Z AUTO VRB05KT 10SM BKN021 BKN075 24/18 A3009 RMK
AO2 T02440178





000
SAUS44 KMEG 281654
MTRTUP
METAR KTUP 281653Z AUTO 24006KT 10SM SCT021 BKN070 23/18 A3010 RMK
AO2 SLP188 T02330178





000
SAUS44 KMEG 281654
MTRTUP
METAR KTUP 281653Z AUTO 24006KT 10SM SCT021 BKN070 23/18 A3010 RMK
AO2 SLP188 T02330178





000
SAUS44 KMEG 281557
MTRTUP
METAR KTUP 281553Z AUTO 23009G15KT 10SM SCT070 23/18 A3010 RMK AO2
SLP189 T02280178





000
SAUS44 KMEG 281557
MTRTUP
METAR KTUP 281553Z AUTO 23009G15KT 10SM SCT070 23/18 A3010 RMK AO2
SLP189 T02280178





000
SAUS44 KMEG 281454
MTRTUP
METAR KTUP 281453Z AUTO 22006KT 8SM CLR 21/17 A3010 RMK AO2 SLP190
T02060172 51016





000
SAUS44 KMEG 281354
MTRTUP
METAR KTUP 281353Z 22004KT 4SM BR FEW060 18/16 A3009 RMK AO2 SLP188
T01780161 $





000
SAUS44 KMEG 281335
MTRTUP
SPECI KTUP 281334Z 20006KT 3SM BR FEW046 SCT060 17/16 A3009 RMK AO2
T01720161 $





000
SAUS44 KMEG 281254
MTRTUP
METAR KTUP 281253Z 21006KT 2SM BR FEW003 BKN050 17/15 A3007 RMK AO2
SLP180 T01670150 $





000
SAUS44 KMEG 281242
MTRTUP
SPECI KTUP 281241Z 21004KT 2SM BR FEW003 SCT050 16/15 A3007 RMK AO2
T01610150 $





000
SAUS44 KMEG 281232
MTRTUP
SPECI KTUP 281231Z 20005KT 2SM BR SCT050 16/15 A3006 RMK AO2
T01610150 $





000
SAUS44 KMEG 281216
MTRTUP
SPECI KTUP 281215Z 20006KT 1 3/4SM BR FEW047 16/14 A3006 RMK AO2
T01560144 $





000
SAUS44 KMEG 281207
MTRTUP
SPECI KTUP 281206Z 20005KT 2SM BR FEW049 16/14 A3005 RMK AO2
T01560144 $





000
SAUS44 KMEG 281154
MTRTUP
METAR KTUP 281153Z 20005KT 3SM BR FEW049 16/14 A3005 RMK AO2 SLP174
T01560144 10189 20150 51012 $





    US Dept of Commerce
    National Oceanic and Atmospheric Administration
    National Weather Service
    1325 East West Highway
    Silver Spring, MD 20910
    Page Author: NWS Internet Services Team
Disclaimer
Information Quality
Credits
Glossary
Privacy Policy
Freedom of Information Act (FOIA)
About Us
Career Opportunities